Time;durP1;ratioP1;P1;durP2;ratioP2;P2;SDS_P1;SDS_P2;PMS_P1;PMS_P2;Temp;Humidity;BMP_temperature;BMP_pressure;BME280_temperature;BME280_humidity;BME280_pressure;Samples;Min_cycle;Max_cycle;Signal;HPM_P1;HPM_P2
2023/05/13 00:00:24;;;;;;;23.03;7.90;;;11.80;43.50;;;;;;5113755;28;20198;-80
2023/05/13 00:06:12;;;;;;;13.90;8.57;;;11.90;43.60;;;;;;5113809;28;20180;-80
2023/05/13 00:12:00;;;;;;;19.33;9.17;;;12.00;31.60;;;;;;5113718;28;20253;-80
2023/05/13 00:17:47;;;;;;;20.07;8.37;;;12.00;36.00;;;;;;5134373;28;20415;-80
2023/05/13 00:27:03;;;;;;;11.40;7.90;;;12.10;32.10;;;;;;5117869;28;20750;-80
2023/05/13 00:32:51;;;;;;;12.07;7.60;;;12.20;30.30;;;;;;5117130;28;20539;-81
2023/05/13 00:38:39;;;;;;;15.93;7.20;;;12.30;30.10;;;;;;5137466;27;20156;-80
2023/05/13 00:41:31;;;;;;;12.00;7.40;;;12.30;28.00;;;;;;5134126;27;20403;-80
2023/05/13 00:47:20;;;;;;;15.43;7.67;;;12.40;23.40;;;;;;5117012;28;20397;-81
2023/05/13 00:54:01;;;;;;;12.50;8.10;;;12.40;20.40;;;;;;5131275;27;20415;-81
2023/05/13 00:59:49;;;;;;;9.10;7.03;;;12.40;22.20;;;;;;5116517;28;20419;-80
2023/05/13 01:03:07;;;;;;;17.80;7.57;;;12.40;21.20;;;;;;5116597;28;20485;-80
2023/05/13 01:05:45;;;;;;;10.03;7.23;;;12.40;20.90;;;;;;5117100;28;20405;-74
2023/05/13 01:08:19;;;;;;;14.83;6.70;;;12.50;18.90;;;;;;5118282;27;20428;-74
2023/05/13 01:10:58;;;;;;;16.83;7.37;;;12.40;18.00;;;;;;5116725;28;20394;-74
2023/05/13 01:13:30;;;;;;;22.60;7.40;;;12.50;18.90;;;;;;5116280;28;20398;-74
2023/05/13 01:16:08;;;;;;;16.43;6.30;;;12.50;18.80;;;;;;5137172;27;20377;-73
2023/05/13 01:18:42;;;;;;;20.23;6.80;;;12.50;20.20;;;;;;5136762;27;20426;-74
2023/05/13 01:21:10;;;;;;;14.30;7.60;;;12.60;20.60;;;;;;5137517;27;20393;-74
2023/05/13 01:23:50;;;;;;;13.40;7.60;;;12.60;20.80;;;;;;5135279;27;20508;-74
2023/05/13 01:26:27;;;;;;;15.10;7.43;;;12.60;21.10;;;;;;5116465;28;20378;-73
2023/05/13 01:28:53;;;;;;;11.63;7.20;;;12.60;20.80;;;;;;5116401;28;20971;-74
2023/05/13 01:31:21;;;;;;;10.73;7.23;;;12.80;19.20;;;;;;5116300;28;20370;-74
2023/05/13 01:34:04;;;;;;;14.63;7.43;;;12.80;17.30;;;;;;5119211;27;20458;-73
2023/05/13 01:36:31;;;;;;;8.77;6.63;;;12.80;16.80;;;;;;5115607;27;20449;-74
2023/05/13 01:38:58;;;;;;;10.73;6.67;;;12.80;14.20;;;;;;5115318;28;20380;-74
2023/05/13 01:41:24;;;;;;;8.90;6.13;;;12.80;14.40;;;;;;5116084;28;20363;-74
2023/05/13 01:43:49;;;;;;;9.90;6.63;;;12.80;14.60;;;;;;5126021;27;20471;-73
2023/05/13 01:46:15;;;;;;;12.93;6.60;;;12.80;14.50;;;;;;5136469;27;20676;-74
2023/05/13 01:48:44;;;;;;;13.43;7.70;;;12.90;14.60;;;;;;5134639;27;20244;-74
2023/05/13 01:51:14;;;;;;;9.37;7.07;;;12.80;14.80;;;;;;5119350;27;20765;-74
2023/05/13 01:53:40;;;;;;;10.23;6.67;;;13.00;13.10;;;;;;5129549;27;20411;-74
2023/05/13 01:56:09;;;;;;;19.70;7.07;;;12.90;13.30;;;;;;5115827;28;20871;-73
2023/05/13 01:58:35;;;;;;;19.70;7.70;;;12.90;12.30;;;;;;5115878;28;20154;-74
2023/05/13 02:01:02;;;;;;;10.67;7.00;;;12.90;13.30;;;;;;5115802;27;20412;-74
2023/05/13 02:03:28;;;;;;;12.90;6.20;;;12.80;16.80;;;;;;5115459;28;20170;-74
2023/05/13 02:06:02;;;;;;;9.07;6.80;;;12.90;12.10;;;;;;5127221;27;20420;-80
2023/05/13 02:11:50;;;;;;;14.10;7.20;;;12.80;12.10;;;;;;5135900;27;20370;-80
2023/05/13 02:14:32;;;;;;;16.00;6.90;;;12.80;11.10;;;;;;5125753;27;20419;-80
2023/05/13 02:17:31;;;;;;;15.33;7.00;;;12.90;10.90;;;;;;5115415;28;20402;-81
2023/05/13 02:19:57;;;;;;;22.50;7.47;;;12.80;10.50;;;;;;5116013;28;20384;-74
2023/05/13 02:22:23;;;;;;;12.90;7.13;;;12.80;10.00;;;;;;5115471;28;20390;-74
2023/05/13 02:24:50;;;;;;;12.70;6.70;;;12.70;8.60;;;;;;5114417;28;20186;-73
2023/05/13 02:27:20;;;;;;;8.33;6.53;;;12.70;8.00;;;;;;5131206;27;20161;-74
2023/05/13 02:29:50;;;;;;;17.10;6.80;;;12.70;7.70;;;;;;5129690;27;20446;-74
2023/05/13 02:32:26;;;;;;;8.30;6.23;;;12.70;7.50;;;;;;5115012;28;20446;-74
2023/05/13 02:34:51;;;;;;;8.30;6.83;;;12.70;6.20;;;;;;5115256;28;21187;-74
2023/05/13 02:37:20;;;;;;;12.73;6.30;;;12.70;4.40;;;;;;5114723;28;20518;-74
2023/05/13 02:39:45;;;;;;;13.13;6.10;;;12.60;3.60;;;;;;5114922;28;20165;-73
2023/05/13 02:42:20;;;;;;;15.40;6.50;;;12.60;3.10;;;;;;5114989;28;20378;-74
2023/05/13 02:44:45;;;;;;;17.33;6.30;;;12.50;2.10;;;;;;5122172;27;20228;-74
2023/05/13 02:47:11;;;;;;;18.20;6.23;;;12.50;2.30;;;;;;5135435;27;20451;-74
2023/05/13 02:49:41;;;;;;;10.40;6.57;;;12.40;1.00;;;;;;5134416;27;20183;-74
2023/05/13 02:52:06;;;;;;;7.87;6.57;;;12.30;1.00;;;;;;5135771;27;20253;-74
2023/05/13 02:54:38;;;;;;;7.83;5.80;;;12.20;1.00;;;;;;5119041;27;20434;-73
2023/05/13 02:57:04;;;;;;;11.40;6.80;;;12.10;1.00;;;;;;5114503;28;20604;-74
2023/05/13 02:59:29;;;;;;;8.07;7.03;;;12.10;1.00;;;;;;5114249;27;20391;-73
2023/05/13 03:02:49;;;;;;;22.87;6.77;;;12.00;1.00;;;;;;5132023;27;20432;-85
2023/05/13 03:05:32;;;;;;;10.00;5.93;;;11.90;1.00;;;;;;5136019;27;20193;-85
2023/05/13 03:08:31;;;;;;;7.70;6.00;;;11.80;1.00;;;;;;5117056;27;20389;-86
2023/05/13 03:14:19;;;;;;;7.67;6.20;;;11.60;1.00;;;;;;5115525;27;20385;-86
2023/05/13 03:16:45;;;;;;;7.70;5.97;;;11.40;1.00;;;;;;5096501;28;20411;-85
2023/05/13 03:19:10;;;;;;;9.23;6.50;;;11.40;1.60;;;;;;5133048;27;20196;-85
2023/05/13 03:21:38;;;;;;;8.60;6.50;;;11.30;3.00;;;;;;5134892;27;20177;-85
2023/05/13 03:24:04;;;;;;;15.33;6.20;;;11.20;5.20;;;;;;5115104;28;20169;-86
2023/05/13 03:26:30;;;;;;;10.17;7.10;;;11.20;6.00;;;;;;5111860;28;20410;-86
2023/05/13 03:28:55;;;;;;;15.00;6.87;;;11.10;7.80;;;;;;5096250;28;20744;-85
2023/05/13 03:31:21;;;;;;;9.70;6.50;;;11.10;8.90;;;;;;5097707;28;20186;-85
2023/05/13 03:33:47;;;;;;;12.30;7.37;;;11.00;9.50;;;;;;5095830;28;20177;-85
2023/05/13 03:36:13;;;;;;;18.60;8.03;;;11.00;10.70;;;;;;5113384;28;20389;-85
2023/05/13 03:39:01;;;;;;;7.30;6.60;;;11.00;12.10;;;;;;5113879;28;20847;-86
2023/05/13 03:41:32;;;;;;;12.57;7.17;;;11.00;13.10;;;;;;5100411;28;20422;-85
2023/05/13 03:44:31;;;;;;;12.63;6.40;;;10.90;14.60;;;;;;5113611;28;20403;-85
2023/05/13 03:47:02;;;;;;;11.93;6.27;;;10.90;16.10;;;;;;5116846;28;20434;-86
2023/05/13 03:49:41;;;;;;;8.40;6.20;;;10.90;15.80;;;;;;5116740;28;20381;-86
2023/05/13 03:52:06;;;;;;;11.20;6.87;;;10.80;20.50;;;;;;5116963;28;20539;-85
2023/05/13 03:57:54;;;;;;;12.27;7.10;;;10.80;19.70;;;;;;5134510;28;20200;-85
2023/05/13 04:00:49;;;;;;;15.33;7.97;;;10.80;20.50;;;;;;5115429;27;20907;-86
2023/05/13 04:03:33;;;;;;;10.60;7.20;;;10.70;21.10;;;;;;5100553;28;20205;-85
2023/05/13 04:06:02;;;;;;;9.00;7.03;;;10.80;22.50;;;;;;5116135;28;20447;-85
2023/05/13 04:09:03;;;;;;;13.10;6.90;;;10.70;24.20;;;;;;5100362;28;20499;-85
2023/05/13 04:18:32;;;;;;;13.70;8.07;;;10.70;28.30;;;;;;5118234;27;20405;-85
2023/05/13 04:21:17;;;;;;;13.17;7.57;;;10.70;29.80;;;;;;5100069;28;20396;-85
2023/05/13 04:27:31;;;;;;;13.13;8.87;;;10.80;42.60;;;;;;5117849;28;20443;-85
2023/05/13 04:30:37;;;;;;;14.33;8.00;;;10.90;42.80;;;;;;5101926;27;20405;-85
2023/05/13 04:33:08;;;;;;;10.77;8.40;;;10.90;42.70;;;;;;5117393;27;20509;-85
2023/05/13 04:35:38;;;;;;;11.47;8.30;;;11.10;42.80;;;;;;5101936;27;20431;-85
2023/05/13 04:38:31;;;;;;;13.93;9.63;;;11.20;42.90;;;;;;5099899;28;20426;-85
2023/05/13 04:41:31;;;;;;;8.90;7.60;;;11.30;43.00;;;;;;5099523;28;20399;-85
2023/05/13 04:44:32;;;;;;;10.80;8.03;;;11.50;43.20;;;;;;5099408;27;20441;-86
2023/05/13 04:50:20;;;;;;;22.27;8.30;;;11.90;43.60;;;;;;5117231;28;20779;-85
2023/05/13 04:53:02;;;;;;;20.67;9.10;;;12.10;43.70;;;;;;5118806;27;20419;-84
2023/05/13 04:55:33;;;;;;;13.27;9.10;;;12.20;43.80;;;;;;5108483;28;20694;-84
2023/05/13 05:01:32;;;;;;;7.90;7.00;;;12.50;32.80;;;;;;5117450;27;20410;-84
2023/05/13 05:04:14;;;;;;;17.37;7.30;;;12.70;25.30;;;;;;5098768;28;20883;-84
2023/05/13 05:10:01;;;;;;;14.93;7.20;;;12.80;19.20;;;;;;5117170;28;20361;-86
2023/05/13 05:12:32;;;;;;;6.67;6.00;;;12.90;12.60;;;;;;5098449;28;20363;-86
2023/05/13 05:18:20;;;;;;;8.00;6.33;;;13.10;6.70;;;;;;5128131;27;20903;-85
2023/05/13 05:21:02;;;;;;;9.83;6.50;;;13.20;6.80;;;;;;5098871;28;20407;-85
2023/05/13 05:23:32;;;;;;;14.40;7.50;;;13.30;4.60;;;;;;5116532;27;20173;-84
2023/05/13 05:26:02;;;;;;;12.67;6.13;;;13.50;2.80;;;;;;5098328;27;20446;-84
2023/05/13 05:29:01;;;;;;;9.03;6.27;;;13.70;4.70;;;;;;5118739;27;20415;-85
2023/05/13 05:32:01;;;;;;;11.50;6.80;;;13.80;1.00;;;;;;5124212;27;20423;-85
2023/05/13 05:35:02;;;;;;;9.03;6.27;;;14.00;1.00;;;;;;5098296;28;20785;-84
2023/05/13 05:37:32;;;;;;;8.87;6.17;;;14.20;1.00;;;;;;5098710;28;20754;-85
2023/05/13 05:39:58;;;;;;;8.97;5.47;;;14.40;1.00;;;;;;5102365;27;20414;-83
2023/05/13 05:42:56;;;;;;;10.50;6.13;;;14.60;1.00;;;;;;5103572;28;20447;-84
2023/05/13 05:52:06;;;;;;;5.60;5.10;;;14.90;1.00;;;;;;5116465;28;20426;-87
2023/05/13 05:55:02;;;;;;;7.23;6.10;;;15.00;1.00;;;;;;5098138;28;20511;-87
2023/05/13 05:57:28;;;;;;;8.07;4.97;;;15.00;1.00;;;;;;5101428;28;20438;-88
2023/05/13 06:06:56;;;;;;;12.20;5.90;;;15.40;1.00;;;;;;5117795;27;20394;-86
2023/05/13 06:16:05;;;;;;;8.73;4.93;;;16.20;1.00;;;;;;5120744;27;20398;-85
2023/05/13 06:25:15;;;;;;;12.17;4.27;;;16.80;1.00;;;;;;5115236;28;20522;-89
2023/05/13 06:28:02;;;;;;;7.73;3.87;;;16.90;1.00;;;;;;5115858;27;20417;-89
2023/05/13 06:33:49;;;;;;;5.20;3.87;;;17.00;1.00;;;;;;5115484;28;20451;-89
2023/05/13 06:36:52;;;;;;;4.97;3.70;;;16.90;1.00;;;;;;5100377;27;20418;-88
2023/05/13 06:42:40;;;;;;;5.77;3.77;;;16.80;1.00;;;;;;5120616;27;20449;-85
2023/05/13 06:48:27;;;;;;;4.70;3.80;;;16.60;1.00;;;;;;5122758;27;20186;-84
2023/05/13 06:54:15;;;;;;;6.90;4.40;;;;;;;;;;5115227;27;20236;-85
2023/05/13 07:00:04;;;;;;;7.23;3.23;;;16.70;1.00;;;;;;5115006;28;20377;-85
2023/05/13 07:06:26;;;;;;;4.83;3.47;;;17.00;1.00;;;;;;5114680;28;20949;-85
2023/05/13 07:09:02;;;;;;;3.77;3.33;;;17.00;1.00;;;;;;5097087;28;20916;-82
2023/05/13 07:12:02;;;;;;;6.00;3.20;;;16.90;1.00;;;;;;5096077;28;20444;-83
2023/05/13 07:28:32;;;;;;;8.87;3.50;;;17.20;1.00;;;;;;5114166;28;20550;-83
2023/05/13 07:37:42;;;;;;;8.70;3.10;;;17.60;1.00;;;;;;5123700;27;20476;-91
2023/05/13 07:47:04;;;;;;;3.80;3.00;;;17.90;1.00;;;;;;5119032;28;20409;-91
2023/05/13 07:49:41;;;;;;;5.40;2.90;;;18.00;1.00;;;;;;5111696;28;20504;-91
2023/05/13 07:55:32;;;;;;;4.30;3.23;;;18.30;1.00;;;;;;5139068;27;20820;-92
2023/05/13 07:58:32;;;;;;;5.93;2.97;;;18.50;1.00;;;;;;5120824;27;20439;-89
2023/05/13 08:01:32;;;;;;;3.20;2.90;;;18.50;1.00;;;;;;5112948;27;20454;-88
2023/05/13 08:07:56;;;;;;;4.57;2.80;;;18.70;1.00;;;;;;5126671;27;21010;-83
2023/05/13 08:10:50;;;;;;;3.40;2.70;;;19.10;1.00;;;;;;5099221;27;20464;-82
2023/05/13 08:14:02;;;;;;;6.77;2.60;;;19.50;1.00;;;;;;5117494;28;20853;-83
2023/05/13 08:16:44;;;;;;;12.30;2.97;;;20.00;1.00;;;;;;5119078;27;20420;-82
2023/05/13 08:20:02;;;;;;;7.00;2.80;;;20.50;1.00;;;;;;5106867;28;20512;-82
2023/05/13 08:22:50;;;;;;;6.50;2.97;;;20.90;1.00;;;;;;5098872;28;20445;-82
2023/05/13 08:25:32;;;;;;;9.93;3.07;;;21.40;1.00;;;;;;5103363;28;20458;-82
2023/05/13 08:28:32;;;;;;;4.17;2.67;;;21.80;1.00;;;;;;5099123;28;21067;-82
2023/05/13 08:31:03;;;;;;;3.43;2.47;;;22.10;1.00;;;;;;5117241;27;20500;-82
2023/05/13 08:33:33;;;;;;;3.13;2.87;;;22.40;1.00;;;;;;5117369;28;20417;-82
2023/05/13 08:36:32;;;;;;;4.70;2.60;;;22.50;1.00;;;;;;5126284;27;20432;-83
2023/05/13 08:42:34;;;;;;;3.53;2.83;;;22.60;1.00;;;;;;5123676;27;20976;-83
2023/05/13 08:45:32;;;;;;;9.63;3.10;;;22.50;1.00;;;;;;5121048;27;20543;-85
2023/05/13 08:48:00;;;;;;;4.23;3.17;;;22.30;1.00;;;;;;5100434;27;20417;-84
2023/05/13 08:50:32;;;;;;;10.80;4.20;;;22.20;1.00;;;;;;5106295;27;20468;-85
2023/05/13 08:53:16;;;;;;;46.73;14.73;;;22.10;1.00;;;;;;5092674;28;20502;-83
2023/05/13 08:59:26;;;;;;;4.50;3.03;;;21.60;1.00;;;;;;5116738;27;20472;-84
2023/05/13 09:02:32;;;;;;;6.30;2.67;;;21.40;1.00;;;;;;5098427;28;20403;-84
2023/05/13 09:05:32;;;;;;;6.00;3.23;;;21.30;1.00;;;;;;5112234;28;20455;-83
2023/05/13 09:08:32;;;;;;;5.27;3.80;;;21.20;1.00;;;;;;5098362;28;20518;-83
2023/05/13 09:11:32;;;;;;;6.80;3.20;;;21.20;1.00;;;;;;5099757;27;20458;-84
2023/05/13 09:14:04;;;;;;;2.80;2.60;;;21.00;1.00;;;;;;5098704;28;20404;-84
2023/05/13 09:16:56;;;;;;;3.43;2.60;;;21.00;1.00;;;;;;5098710;28;20953;-85
2023/05/13 09:20:02;;;;;;;4.50;2.43;;;20.90;1.00;;;;;;5105235;28;20545;-84
2023/05/13 09:23:05;;;;;;;3.47;2.83;;;20.80;1.00;;;;;;5100977;28;20439;-84
2023/05/13 09:32:26;;;;;;;3.47;3.00;;;20.90;1.00;;;;;;5134882;27;20402;-84
2023/05/13 09:38:36;;;;;;;2.63;2.43;;;21.10;1.00;;;;;;5129567;27;20423;-83
2023/05/13 09:41:02;;;;;;;3.13;2.50;;;21.20;1.00;;;;;;5136908;27;20635;-83
2023/05/13 09:50:12;;;;;;;2.73;2.50;;;21.40;1.00;;;;;;5116048;27;20494;-83
2023/05/13 09:53:32;;;;;;;2.80;2.60;;;21.60;1.00;;;;;;5098162;28;20427;-84
2023/05/13 09:56:02;;;;;;;5.40;2.40;;;21.70;1.00;;;;;;5097838;28;20615;-84
2023/05/13 09:59:02;;;;;;;4.40;3.03;;;21.80;1.00;;;;;;5097394;28;20424;-83
2023/05/13 10:01:35;;;;;;;5.10;2.87;;;21.80;1.00;;;;;;5102421;28;20423;-84
2023/05/13 10:04:32;;;;;;;3.40;2.80;;;21.80;1.00;;;;;;5096885;28;20464;-84
2023/05/13 10:07:33;;;;;;;11.83;3.03;;;21.90;1.00;;;;;;5101646;28;20500;-84
2023/05/13 10:10:03;;;;;;;6.17;2.67;;;22.10;1.00;;;;;;5115712;28;20427;-83
2023/05/13 10:13:03;;;;;;;3.73;2.77;;;22.00;1.00;;;;;;5113888;27;20934;-84
2023/05/13 10:15:33;;;;;;;5.53;2.67;;;21.80;1.00;;;;;;5120004;27;20544;-84
2023/05/13 10:18:03;;;;;;;2.80;2.43;;;21.80;1.00;;;;;;5115001;27;20435;-83
2023/05/13 10:20:32;;;;;;;5.43;2.50;;;21.90;1.00;;;;;;5096649;28;20432;-83
2023/05/13 10:23:26;;;;;;;5.80;2.50;;;21.90;1.00;;;;;;5097131;28;20440;-83
2023/05/13 10:26:04;;;;;;;3.57;2.70;;;22.10;1.00;;;;;;5098762;27;20452;-83
2023/05/13 10:29:02;;;;;;;4.20;2.37;;;22.10;1.00;;;;;;5117512;27;20408;-83
2023/05/13 10:31:33;;;;;;;5.07;2.57;;;22.20;1.00;;;;;;5119964;27;20486;-83
2023/05/13 10:34:03;;;;;;;3.13;2.83;;;22.20;1.00;;;;;;5108717;27;20523;-83
2023/05/13 10:37:07;;;;;;;7.70;2.37;;;22.30;1.00;;;;;;5097224;28;20530;-83
2023/05/13 10:40:10;;;;;;;2.53;2.43;;;22.30;1.00;;;;;;5099056;27;20515;-83
2023/05/13 10:43:24;;;;;;;3.73;2.67;;;22.30;1.00;;;;;;5096839;28;20452;-83
2023/05/13 10:46:09;;;;;;;4.27;2.40;;;22.50;1.00;;;;;;5095261;28;20995;-83
2023/05/13 10:48:46;;;;;;;3.17;2.50;;;22.70;1.00;;;;;;5108437;28;20523;-83
2023/05/13 10:51:32;;;;;;;4.73;2.73;;;22.70;1.00;;;;;;5100860;28;20487;-83
2023/05/13 10:54:26;;;;;;;2.97;2.70;;;22.40;1.00;;;;;;5117229;27;20940;-83
2023/05/13 10:57:02;;;;;;;3.00;2.80;;;22.30;1.00;;;;;;5115070;27;20431;-84
2023/05/13 11:00:05;;;;;;;3.80;2.50;;;22.30;1.00;;;;;;5096464;28;20430;-84
2023/05/13 11:02:31;;;;;;;3.77;2.50;;;22.30;1.00;;;;;;5114988;27;20392;-82
2023/05/13 11:05:01;;;;;;;3.30;3.00;;;22.40;1.00;;;;;;5116647;27;20444;-83
2023/05/13 11:07:38;;;;;;;3.50;2.40;;;22.70;1.00;;;;;;5107191;27;20207;-83
2023/05/13 11:10:32;;;;;;;3.00;2.80;;;22.80;1.00;;;;;;5120139;27;20455;-83
2023/05/13 11:13:21;;;;;;;5.50;3.00;;;22.70;1.00;;;;;;5096562;28;20468;-84
2023/05/13 11:16:32;;;;;;;3.30;2.60;;;22.70;1.00;;;;;;5096133;28;20452;-84
2023/05/13 11:19:03;;;;;;;3.20;2.90;;;22.60;1.00;;;;;;5122686;27;20467;-84
2023/05/13 11:21:38;;;;;;;3.33;2.37;;;22.50;1.00;;;;;;5095818;28;20435;-84
2023/05/13 11:24:32;;;;;;;5.80;3.20;;;22.30;1.00;;;;;;5102700;27;20423;-91
2023/05/13 11:27:19;;;;;;;4.47;2.93;;;22.10;1.00;;;;;;5116862;28;20441;-88
2023/05/13 11:30:32;;;;;;;3.30;2.80;;;21.90;1.00;;;;;;5099924;28;20428;-87
2023/05/13 11:33:14;;;;;;;5.63;3.63;;;21.70;1.00;;;;;;5096795;28;20431;-87
2023/05/13 11:36:03;;;;;;;3.67;2.87;;;21.50;1.00;;;;;;5096283;28;20805;-87
2023/05/13 11:38:33;;;;;;;6.03;3.10;;;21.60;1.00;;;;;;5096252;28;20429;-81
2023/05/13 11:41:03;;;;;;;3.97;3.57;;;21.70;1.00;;;;;;5115974;28;20433;-75
2023/05/13 11:43:33;;;;;;;9.30;4.07;;;21.90;1.00;;;;;;5131821;28;20894;-76
2023/05/13 11:46:03;;;;;;;9.73;4.10;;;22.00;1.00;;;;;;5113834;28;20456;-77
2023/05/13 11:48:34;;;;;;;4.93;3.20;;;22.20;1.00;;;;;;5114518;28;20442;-76
2023/05/13 11:51:02;;;;;;;4.07;3.53;;;22.20;1.00;;;;;;5113991;28;20415;-77
2023/05/13 11:54:02;;;;;;;3.63;3.30;;;22.20;1.00;;;;;;5133479;28;20748;-77
2023/05/13 11:57:02;;;;;;;10.50;3.40;;;22.50;1.00;;;;;;5114396;28;20456;-83
2023/05/13 11:59:32;;;;;;;7.13;3.37;;;22.90;1.00;;;;;;5113956;28;20394;-83
2023/05/13 12:02:02;;;;;;;12.17;2.97;;;23.30;1.00;;;;;;5114336;28;20735;-75
2023/05/13 12:05:00;;;;;;;3.20;2.47;;;23.50;1.00;;;;;;5120176;28;20469;-75
2023/05/13 12:07:27;;;;;;;4.30;3.07;;;23.50;1.00;;;;;;5114250;28;20482;-76
2023/05/13 12:10:04;;;;;;;4.13;2.60;;;23.60;1.00;;;;;;5113567;28;20941;-77
2023/05/13 12:12:36;;;;;;;7.67;2.70;;;23.60;1.00;;;;;;5114011;28;20434;-82
2023/05/13 12:15:08;;;;;;;3.13;2.83;;;23.60;1.00;;;;;;5114483;28;20426;-82
2023/05/13 12:21:33;;;;;;;4.17;2.73;;;23.30;1.00;;;;;;5113306;28;20449;-82
2023/05/13 12:24:19;;;;;;;6.30;2.53;;;23.10;1.00;;;;;;5117331;27;20469;-83
2023/05/13 12:27:06;;;;;;;6.00;3.10;;;23.10;1.00;;;;;;5109332;27;20792;-82
2023/05/13 12:29:44;;;;;;;5.40;2.60;;;22.90;1.00;;;;;;5119813;27;20504;-86
2023/05/13 12:33:03;;;;;;;9.33;2.67;;;22.90;1.00;;;;;;5138207;27;20939;-85
2023/05/13 12:35:32;;;;;;;6.80;2.67;;;22.90;1.00;;;;;;5106430;28;20454;-84
2023/05/13 12:38:03;;;;;;;2.90;2.60;;;22.90;1.00;;;;;;5099276;28;20428;-85
2023/05/13 12:43:59;;;;;;;2.93;2.60;;;23.10;1.00;;;;;;5120090;27;20412;-85
2023/05/13 12:49:57;;;;;;;10.13;2.40;;;22.90;1.00;;;;;;5116413;28;20378;-85
2023/05/13 12:59:08;;;;;;;2.13;1.80;;;;;;;;;;5137671;27;20489;-88
2023/05/13 13:04:55;;;;;;;5.17;1.77;;;;;;;;;;5131353;27;20461;-87
2023/05/13 13:10:43;;;;;;;1.70;1.60;;;21.20;1.00;;;;;;5117467;28;20382;-86
2023/05/13 13:16:31;;;;;;;3.53;2.17;;;21.40;1.00;;;;;;5136271;27;20180;-86
2023/05/13 13:22:18;;;;;;;3.23;2.10;;;21.70;1.00;;;;;;5137544;27;20220;-85
2023/05/13 13:24:44;;;;;;;3.77;2.47;;;22.00;1.00;;;;;;5135114;27;20934;-86
2023/05/13 13:27:44;;;;;;;2.30;2.20;;;22.40;1.00;;;;;;5117057;27;20174;-86
2023/05/13 13:30:20;;;;;;;3.80;2.43;;;22.00;1.00;;;;;;5098560;28;20178;-86
2023/05/13 13:36:08;;;;;;;2.90;2.37;;;22.00;1.00;;;;;;5116387;28;20477;-86
2023/05/13 13:41:56;;;;;;;2.53;2.13;;;;;;;;;;5117026;28;20179;-87
2023/05/13 13:47:44;;;;;;;2.50;2.30;;;;;;;;;;5116471;28;20392;-87
2023/05/13 13:53:32;;;;;;;2.63;2.43;;;;;;;;;;5116439;28;20472;-88
2023/05/13 13:59:19;;;;;;;5.03;2.43;;;;;;;;;;5128505;27;20414;-88
2023/05/13 14:05:09;;;;;;;3.83;2.83;;;;;;;;;;5136387;27;20508;-88
2023/05/13 14:10:56;;;;;;;2.20;2.10;;;23.40;1.00;;;;;;5136704;27;20409;-88
2023/05/13 14:16:44;;;;;;;4.80;1.63;;;24.10;1.00;;;;;;5115546;28;20642;-86
2023/05/13 14:22:32;;;;;;;2.13;1.93;;;24.70;1.00;;;;;;5115576;28;20179;-85
2023/05/13 14:28:20;;;;;;;2.70;1.90;;;24.90;1.00;;;;;;5115518;28;20384;-81
2023/05/13 14:34:07;;;;;;;7.27;2.30;;;24.90;1.00;;;;;;5113792;28;20190;-80
2023/05/13 14:39:55;;;;;;;2.10;2.00;;;24.70;1.00;;;;;;5114753;28;20202;-82
2023/05/13 14:43:14;;;;;;;2.00;1.90;;;24.60;1.00;;;;;;5096852;28;20532;-85
2023/05/13 14:45:56;;;;;;;3.60;1.97;;;24.60;1.00;;;;;;5112807;27;20294;-86
2023/05/13 14:51:44;;;;;;;7.30;1.90;;;24.50;1.00;;;;;;5135252;27;20511;-86
2023/05/13 14:54:44;;;;;;;3.10;2.30;;;24.30;1.00;;;;;;5116830;27;20470;-85
2023/05/13 15:00:31;;;;;;;2.80;2.20;;;24.60;1.00;;;;;;5119797;27;20434;-84
2023/05/13 15:13:03;;;;;;;3.23;2.33;;;25.60;1.00;;;;;;5114635;28;20835;-85
2023/05/13 15:22:15;;;;;;;2.30;2.10;;;27.40;1.00;;;;;;5114379;28;20912;-87
2023/05/13 15:28:59;;;;;;;4.80;2.20;;;30.60;1.00;;;;;;5115088;28;20395;-88
2023/05/13 15:32:08;;;;;;;5.70;1.90;;;31.80;1.00;;;;;;5096423;28;20484;-89
2023/05/13 15:37:56;;;;;;;1.93;1.70;;;33.40;1.00;;;;;;5119632;28;20426;-85
2023/05/13 15:40:40;;;;;;;2.00;1.80;;;32.60;1.00;;;;;;5096665;28;20416;-88
2023/05/13 15:43:08;;;;;;;3.70;2.33;;;31.30;1.00;;;;;;5114844;28;20435;-85
2023/05/13 15:49:41;;;;;;;6.50;2.30;;;29.00;1.00;;;;;;5121396;28;20418;-85
2023/05/13 15:52:06;;;;;;;2.60;2.40;;;28.20;1.00;;;;;;5095946;28;20478;-84
2023/05/13 15:55:03;;;;;;;2.40;2.20;;;27.00;1.00;;;;;;5116752;28;20929;-86
2023/05/13 15:57:33;;;;;;;3.00;2.80;;;26.80;1.00;;;;;;5115073;28;20201;-86
2023/05/13 16:00:44;;;;;;;2.33;2.03;;;27.30;1.00;;;;;;5104035;28;20525;-89
2023/05/13 16:06:50;;;;;;;7.17;2.40;;;29.20;1.00;;;;;;5136472;27;20473;-85
2023/05/13 16:12:38;;;;;;;2.43;2.10;;;29.10;1.00;;;;;;5126755;27;20412;-86
2023/05/13 16:18:38;;;;;;;4.63;2.43;;;29.90;1.00;;;;;;5130339;27;20184;-82
2023/05/13 16:21:44;;;;;;;2.40;1.90;;;29.60;1.00;;;;;;5117630;27;20441;-85
2023/05/13 16:27:33;;;;;;;7.77;2.37;;;29.00;1.00;;;;;;5117339;28;20816;-83
2023/05/13 16:33:22;;;;;;;2.23;2.00;;;28.90;1.00;;;;;;5117318;28;20405;-85
2023/05/13 16:39:09;;;;;;;3.33;2.40;;;28.70;1.00;;;;;;5122534;27;20465;-84
2023/05/13 16:41:39;;;;;;;2.40;2.20;;;29.10;1.00;;;;;;5105195;28;20429;-85
2023/05/13 16:47:26;;;;;;;1.93;1.80;;;29.40;1.00;;;;;;5116968;28;20452;-83
2023/05/13 16:49:57;;;;;;;10.23;2.13;;;30.80;1.00;;;;;;5124719;27;20902;-83
2023/05/13 16:55:44;;;;;;;4.07;1.97;;;31.40;1.00;;;;;;5116799;28;20395;-83
2023/05/13 16:58:44;;;;;;;2.10;1.90;;;32.70;1.00;;;;;;5101425;27;20906;-82
2023/05/13 17:04:32;;;;;;;1.70;1.60;;;34.30;1.00;;;;;;5135549;27;20950;-85
2023/05/13 17:07:38;;;;;;;2.90;1.90;;;35.30;1.00;;;;;;5119261;27;20502;-87
2023/05/13 17:10:04;;;;;;;2.20;1.60;;;36.10;1.00;;;;;;5116757;27;20451;-88
2023/05/13 17:13:08;;;;;;;6.53;1.70;;;36.10;1.00;;;;;;5105592;27;20414;-88
2023/05/13 17:18:57;;;;;;;3.67;1.90;;;34.30;1.00;;;;;;5116846;28;20439;-86
2023/05/13 17:28:06;;;;;;;5.80;2.33;;;31.80;1.00;;;;;;5133823;27;20487;-85
2023/05/13 17:33:54;;;;;;;7.43;2.67;;;30.30;1.00;;;;;;5116294;27;20819;-85
2023/05/13 17:36:33;;;;;;;3.97;2.60;;;29.30;1.00;;;;;;5121081;27;20434;-86
2023/05/13 17:39:38;;;;;;;3.70;2.50;;;28.80;1.00;;;;;;5124151;27;20619;-84
2023/05/13 17:48:48;;;;;;;3.97;2.87;;;26.10;1.00;;;;;;5116306;28;20371;-86
2023/05/13 17:51:56;;;;;;;3.43;2.53;;;25.30;1.00;;;;;;5104709;27;20430;-84
2023/05/13 17:55:02;;;;;;;3.60;2.60;;;24.60;1.00;;;;;;5103476;28;20179;-82
2023/05/13 17:58:08;;;;;;;4.27;2.50;;;23.80;1.00;;;;;;5115677;27;20433;-84
2023/05/13 18:00:51;;;;;;;3.90;2.67;;;23.20;1.00;;;;;;5124198;27;20437;-86
2023/05/13 18:06:38;;;;;;;5.20;2.90;;;22.20;1.00;;;;;;5136092;27;20821;-85
2023/05/13 18:12:26;;;;;;;6.20;3.70;;;21.50;1.00;;;;;;5128045;27;20239;-87
2023/05/13 18:18:15;;;;;;;4.93;3.07;;;21.00;1.00;;;;;;5132675;27;20670;-86
2023/05/13 18:37:30;;;;;;;6.57;3.83;;;19.00;1.00;;;;;;5114602;27;20459;-82
2023/05/13 18:40:32;;;;;;;4.20;3.40;;;18.70;1.00;;;;;;5101263;27;20435;-86
2023/05/13 18:46:20;;;;;;;9.43;4.30;;;18.10;1.00;;;;;;5115084;28;20555;-85
2023/05/13 18:49:41;;;;;;;7.27;3.70;;;17.80;1.00;;;;;;5099070;27;20431;-85
2023/05/13 18:52:06;;;;;;;8.37;3.87;;;17.60;1.00;;;;;;5117540;27;20463;-84
2023/05/13 18:55:03;;;;;;;5.30;4.27;;;17.30;1.00;;;;;;5104698;28;20434;-84
2023/05/13 19:04:14;;;;;;;9.23;4.67;;;;;;;;;;5115488;28;20466;-87
2023/05/13 19:06:45;;;;;;;16.40;3.83;;;;;;;;;;5096735;28;20449;-87
2023/05/13 19:12:32;;;;;;;9.10;4.53;;;16.00;1.00;;;;;;5135546;27;20400;-86
2023/05/13 19:19:02;;;;;;;7.97;4.47;;;15.70;1.00;;;;;;5114636;28;20315;-89
2023/05/13 19:24:50;;;;;;;11.07;4.30;;;;;;;;;;5124615;27;20454;-88
2023/05/13 19:27:21;;;;;;;17.00;5.10;;;;;;;;;;5096794;28;20799;-88
2023/05/13 19:33:09;;;;;;;10.20;4.67;;;15.00;1.00;;;;;;5113706;28;20721;-85
2023/05/13 19:42:50;;;;;;;7.90;5.00;;;14.60;1.00;;;;;;5114590;28;20420;-84
2023/05/13 19:56:14;;;;;;;8.50;5.50;;;14.10;1.00;;;;;;5114491;28;20410;-88
2023/05/13 19:59:14;;;;;;;15.10;6.00;;;13.90;1.00;;;;;;5098144;28;20501;-88
2023/05/13 20:05:20;;;;;;;10.13;5.53;;;13.70;1.00;;;;;;5129005;28;21006;-88
2023/05/13 20:11:08;;;;;;;11.53;5.20;;;13.60;1.00;;;;;;5114575;28;20407;-87
2023/05/13 20:23:40;;;;;;;11.90;5.57;;;13.30;1.00;;;;;;5134581;28;20376;-85
2023/05/13 20:26:44;;;;;;;9.90;5.50;;;13.30;1.00;;;;;;5102293;28;20904;-85
2023/05/13 20:39:16;;;;;;;22.03;5.93;;;13.00;1.00;;;;;;5118664;28;20502;-74
2023/05/13 20:41:41;;;;;;;13.67;6.30;;;13.00;1.00;;;;;;5113808;28;20450;-74
2023/05/13 20:44:11;;;;;;;13.27;5.63;;;13.00;1.00;;;;;;5115997;28;20531;-74
2023/05/13 20:46:39;;;;;;;11.03;5.60;;;12.90;1.00;;;;;;5118675;27;20227;-74
2023/05/13 20:49:06;;;;;;;10.00;6.00;;;12.90;1.00;;;;;;5119362;27;20447;-74
2023/05/13 20:51:32;;;;;;;11.80;5.70;;;12.90;1.00;;;;;;5137838;27;20805;-74
2023/05/13 20:54:03;;;;;;;9.03;5.47;;;12.90;1.00;;;;;;5136751;27;20450;-74
2023/05/13 20:56:33;;;;;;;14.00;6.50;;;12.90;1.00;;;;;;5123053;27;20458;-74
2023/05/13 20:58:58;;;;;;;11.57;5.80;;;12.80;1.00;;;;;;5136308;27;20361;-74